Terminal Aerodrome Forecast
Issued by NWS

Current Version | Previous Version | Text Only | Print | Product List | Glossary On
Versions: 1 2 3 4 5 6 7 8 9 10 11 12 13 14
000
FTUS43 KPAH 290500
TAFCGI
TAF
KCGI 290527Z 2906/3006 19009KT P6SM SCT030 BKN150 WS020/22045KT
     FM291000 19009G15KT P6SM BKN025 WS020/22050KT
     FM291500 20015G22KT 6SM -DZ BR SCT012 OVC020
     FM300000 20013KT P6SM BKN025=

USA.gov is the U.S. government's official web portal to all federal, state and local government web resources and services.